Time;durP1;ratioP1;P1;durP2;ratioP2;P2;SDS_P1;SDS_P2;PMS_P1;PMS_P2;Temp;Humidity;BMP_temperature;BMP_pressure;BME280_temperature;BME280_humidity;BME280_pressure;Samples;Min_cycle;Max_cycle;Signal;HPM_P1;HPM_P2
2022/09/14 00:01:59;;;;;;;2.10;1.83;;;12.90;99.90;;;;;;5018660;28;89423;-33
2022/09/14 00:04:25;;;;;;;2.25;2.05;;;12.80;99.90;;;;;;5018360;28;90112;-31
2022/09/14 00:06:50;;;;;;;11.40;2.83;;;12.80;99.90;;;;;;5018567;28;90694;-30
2022/09/14 00:09:19;;;;;;;5.53;2.25;;;12.80;99.90;;;;;;5018176;28;89165;-32
2022/09/14 00:11:45;;;;;;;3.80;2.15;;;12.80;99.90;;;;;;5022126;27;90017;-30
2022/09/14 00:14:11;;;;;;;2.75;2.33;;;12.80;99.90;;;;;;5021971;27;89805;-32
2022/09/14 00:16:39;;;;;;;3.28;2.63;;;12.80;99.90;;;;;;5022385;27;89971;-31
2022/09/14 00:19:07;;;;;;;;;;;12.80;99.90;;;;;;5022931;27;89957;-32
2022/09/14 00:21:37;;;;;;;6.90;2.70;;;12.80;99.90;;;;;;5024480;28;89664;-30
2022/09/14 00:24:05;;;;;;;5.90;2.30;;;12.80;99.90;;;;;;5022424;27;90210;-33
2022/09/14 00:26:32;;;;;;;2.53;2.03;;;12.80;99.90;;;;;;5021721;28;89678;-32
2022/09/14 00:28:58;;;;;;;5.15;2.80;;;12.80;99.90;;;;;;5021719;28;89457;-31
2022/09/14 00:31:25;;;;;;;2.05;1.85;;;12.80;99.90;;;;;;5021588;28;88225;-30
2022/09/14 00:33:51;;;;;;;3.60;1.88;;;12.70;99.90;;;;;;5021709;28;90492;-32
2022/09/14 00:36:25;;;;;;;4.63;2.45;;;12.70;99.90;;;;;;5021182;28;89626;-30
2022/09/14 00:38:55;;;;;;;4.32;1.88;;;12.70;99.90;;;;;;5060134;22;90051;-32
2022/09/14 00:41:27;;;;;;;5.38;2.20;;;12.70;99.90;;;;;;5022671;27;89181;-29
2022/09/14 00:44:04;;;;;;;4.05;2.15;;;12.70;99.90;;;;;;5022036;28;90031;-30
2022/09/14 00:46:42;;;;;;;4.05;2.03;;;12.80;99.90;;;;;;5021646;28;89719;-30
2022/09/14 00:49:11;;;;;;;5.20;2.30;;;12.80;99.90;;;;;;5021686;27;89317;-32
2022/09/14 00:51:42;;;;;;;3.65;1.83;;;12.80;99.90;;;;;;5021762;28;89464;-29
2022/09/14 00:54:08;;;;;;;5.20;2.65;;;12.80;99.90;;;;;;5021995;28;90272;-34
2022/09/14 00:56:34;;;;;;;4.43;2.22;;;12.80;99.90;;;;;;5020811;28;90737;-32
2022/09/14 00:59:05;;;;;;;6.88;2.20;;;12.80;99.90;;;;;;5020399;28;89793;-34
2022/09/14 01:01:31;;;;;;;5.88;2.30;;;12.80;99.90;;;;;;5020592;28;88240;-33
2022/09/14 01:03:57;;;;;;;10.93;2.88;;;12.80;99.90;;;;;;5020421;28;90167;-32
2022/09/14 01:06:44;;;;;;;4.70;2.05;;;12.80;99.90;;;;;;5021586;28;89825;-34
2022/09/14 01:09:27;;;;;;;3.03;2.42;;;12.80;99.90;;;;;;5015396;28;89775;-31
2022/09/14 01:12:16;;;;;;;3.08;2.20;;;12.80;99.90;;;;;;5021890;28;89293;-30
2022/09/14 01:14:47;;;;;;;2.30;2.10;;;12.80;99.90;;;;;;5022078;27;90110;-29
2022/09/14 01:17:27;;;;;;;2.13;1.92;;;12.80;99.90;;;;;;5021918;28;89745;-32
2022/09/14 01:20:11;;;;;;;5.22;2.53;;;12.80;99.90;;;;;;5020936;27;89632;-30
2022/09/14 01:22:46;;;;;;;2.20;1.77;;;12.80;99.90;;;;;;5019664;28;89072;-30
2022/09/14 01:25:26;;;;;;;6.22;1.65;;;12.80;99.90;;;;;;5020787;27;90614;-33
2022/09/14 01:27:55;;;;;;;8.95;2.42;;;12.80;99.90;;;;;;5021208;28;89868;-30
2022/09/14 01:30:22;;;;;;;3.25;2.03;;;12.80;99.90;;;;;;5020945;27;89636;-34
2022/09/14 01:33:08;;;;;;;2.28;1.60;;;12.80;99.90;;;;;;5020299;28;89899;-32
2022/09/14 01:35:34;;;;;;;2.58;2.25;;;12.80;99.90;;;;;;5007320;28;90223;-30
2022/09/14 01:38:09;;;;;;;2.28;2.08;;;12.80;99.90;;;;;;5020852;27;89684;-30
2022/09/14 01:40:43;;;;;;;8.77;2.63;;;12.80;99.90;;;;;;5020943;27;89722;-33
2022/09/14 01:43:35;;;;;;;3.17;2.10;;;12.80;99.90;;;;;;5020882;27;89542;-31
2022/09/14 01:46:09;;;;;;;3.00;1.90;;;12.70;99.90;;;;;;5010274;28;90471;-31
2022/09/14 01:48:52;;;;;;;6.57;2.45;;;12.70;99.90;;;;;;5020020;27;89177;-33
2022/09/14 01:51:48;;;;;;;4.35;1.92;;;12.70;99.90;;;;;;5020430;28;90112;-31
2022/09/14 01:54:19;;;;;;;5.03;2.33;;;12.70;99.90;;;;;;5005936;28;87671;-33
2022/09/14 01:56:59;;;;;;;5.20;2.22;;;12.70;99.90;;;;;;5021217;28;90355;-32
2022/09/14 01:59:41;;;;;;;7.50;2.08;;;12.70;99.90;;;;;;5021085;27;89996;-30
2022/09/14 02:02:10;;;;;;;2.25;1.80;;;12.70;99.90;;;;;;5020522;28;89418;-33
2022/09/14 02:04:58;;;;;;;4.95;2.33;;;12.70;99.90;;;;;;5021121;27;87575;-32
2022/09/14 02:07:24;;;;;;;6.95;1.92;;;12.70;99.90;;;;;;5020627;28;88923;-32
2022/09/14 02:09:52;;;;;;;4.28;2.17;;;12.60;99.90;;;;;;5019757;28;90152;-32
2022/09/14 02:12:17;;;;;;;;;;;12.60;99.90;;;;;;5020900;27;89349;-31
2022/09/14 02:14:45;;;;;;;5.50;2.65;;;12.60;99.90;;;;;;5021919;28;89391;-33
2022/09/14 02:17:12;;;;;;;5.25;2.03;;;12.50;99.90;;;;;;5021217;27;90212;-33
2022/09/14 02:19:47;;;;;;;5.60;1.70;;;12.50;99.90;;;;;;5019764;28;89745;-32
2022/09/14 02:22:13;;;;;;;5.38;2.28;;;12.50;99.90;;;;;;5020465;27;89491;-30
2022/09/14 02:24:39;;;;;;;2.22;1.70;;;12.50;99.90;;;;;;5020171;28;89173;-32
2022/09/14 02:27:06;;;;;;;3.47;2.28;;;12.50;99.90;;;;;;5020380;27;90239;-32
2022/09/14 02:29:32;;;;;;;2.47;1.52;;;12.50;99.90;;;;;;5020228;27;89552;-32
2022/09/14 02:32:09;;;;;;;4.88;2.30;;;12.50;99.90;;;;;;5020172;28;89560;-31
2022/09/14 02:35:03;;;;;;;2.03;1.73;;;12.50;99.90;;;;;;5019235;27;89018;-35
2022/09/14 02:38:05;;;;;;;3.45;1.90;;;12.50;99.90;;;;;;5020316;28;90174;-31
2022/09/14 02:40:50;;;;;;;4.18;1.80;;;12.50;99.90;;;;;;5007198;28;90606;-32
2022/09/14 02:43:41;;;;;;;3.35;1.95;;;12.50;99.90;;;;;;5019741;28;90794;-30
2022/09/14 02:46:24;;;;;;;9.70;1.67;;;12.50;99.90;;;;;;5019841;27;87478;-33
2022/09/14 02:48:58;;;;;;;10.80;1.73;;;12.50;99.90;;;;;;5020236;27;89900;-32
2022/09/14 02:51:34;;;;;;;5.10;2.80;;;12.60;99.90;;;;;;5019211;27;89680;-32
2022/09/14 02:54:38;;;;;;;5.93;1.90;;;12.60;99.90;;;;;;5020086;27;89863;-32
2022/09/14 02:57:04;;;;;;;3.65;1.88;;;12.60;99.90;;;;;;4956791;28;88916;-32
2022/09/14 02:59:29;;;;;;;5.07;1.77;;;12.60;99.90;;;;;;5001316;28;90222;-30
2022/09/14 03:01:57;;;;;;;5.45;2.58;;;12.50;99.90;;;;;;5019542;28;89872;-35
2022/09/14 03:04:23;;;;;;;4.60;2.97;;;12.50;99.90;;;;;;5019066;28;90008;-33
2022/09/14 03:06:48;;;;;;;3.53;1.98;;;12.50;99.90;;;;;;5018805;28;90188;-34
2022/09/14 03:09:14;;;;;;;4.30;1.83;;;12.50;99.90;;;;;;5019827;28;90296;-30
2022/09/14 03:11:40;;;;;;;5.97;2.03;;;12.40;99.90;;;;;;5019180;27;90385;-30
2022/09/14 03:14:05;;;;;;;4.78;1.70;;;12.40;99.90;;;;;;5019640;28;89525;-32
2022/09/14 03:16:31;;;;;;;3.33;2.08;;;12.40;99.90;;;;;;5019418;28;89460;-32
2022/09/14 03:18:57;;;;;;;8.60;2.92;;;12.40;99.90;;;;;;5019669;28;89133;-34
2022/09/14 03:21:22;;;;;;;6.45;2.03;;;12.40;99.90;;;;;;5019164;28;89578;-32
2022/09/14 03:23:50;;;;;;;4.68;1.95;;;12.50;99.90;;;;;;5018960;27;89552;-32
2022/09/14 03:26:18;;;;;;;7.70;2.75;;;12.50;99.90;;;;;;5019279;27;88239;-34
2022/09/14 03:28:44;;;;;;;8.88;3.22;;;12.50;99.90;;;;;;5020348;28;90391;-32
2022/09/14 03:31:11;;;;;;;7.13;2.72;;;12.50;99.90;;;;;;5018465;27;90638;-31
2022/09/14 03:33:37;;;;;;;3.85;2.38;;;12.60;99.90;;;;;;5018449;28;90696;-36
2022/09/14 03:36:10;;;;;;;6.90;2.42;;;12.60;99.90;;;;;;5020078;28;89038;-29
2022/09/14 03:38:36;;;;;;;4.63;2.35;;;12.70;99.90;;;;;;5005413;28;90907;-29
2022/09/14 03:41:10;;;;;;;4.22;2.17;;;12.70;99.90;;;;;;5019566;28;89329;-31
2022/09/14 03:43:35;;;;;;;8.52;2.83;;;12.70;99.90;;;;;;5018236;27;89781;-31
2022/09/14 03:46:12;;;;;;;3.17;2.13;;;12.70;99.90;;;;;;5021271;27;89311;-29
2022/09/14 03:48:39;;;;;;;4.88;2.35;;;12.70;99.90;;;;;;5022861;27;90280;-30
2022/09/14 03:51:06;;;;;;;2.95;1.90;;;12.70;99.90;;;;;;5022397;27;89414;-32
2022/09/14 03:53:32;;;;;;;8.43;1.98;;;12.80;99.90;;;;;;5023001;28;89624;-31
2022/09/14 03:55:58;;;;;;;4.28;2.22;;;12.80;99.90;;;;;;5021910;27;89905;-30
2022/09/14 03:58:24;;;;;;;2.30;2.03;;;12.80;99.90;;;;;;5022352;27;90150;-33
2022/09/14 04:00:50;;;;;;;2.80;1.73;;;12.90;99.90;;;;;;5022812;27;89383;-32
2022/09/14 04:03:17;;;;;;;1.73;1.63;;;12.90;99.90;;;;;;5021823;28;89617;-32
2022/09/14 04:05:44;;;;;;;2.97;2.58;;;12.90;99.90;;;;;;5022384;27;89016;-30
2022/09/14 04:08:10;;;;;;;1.88;1.67;;;13.00;99.90;;;;;;5022817;27;90101;-33
2022/09/14 04:10:38;;;;;;;1.77;1.58;;;13.00;99.90;;;;;;5021937;27;90145;-32
2022/09/14 04:13:03;;;;;;;8.10;3.25;;;13.00;99.90;;;;;;5022651;27;89506;-31
2022/09/14 04:15:29;;;;;;;5.20;2.38;;;13.00;99.90;;;;;;5022431;28;88247;-31
2022/09/14 04:17:54;;;;;;;1.90;1.80;;;13.00;99.90;;;;;;5022239;28;90229;-32
2022/09/14 04:20:20;;;;;;;4.25;1.90;;;13.00;99.90;;;;;;5021736;28;90581;-33
2022/09/14 04:22:46;;;;;;;6.78;2.10;;;13.00;99.90;;;;;;5021991;28;90345;-30
2022/09/14 04:25:12;;;;;;;8.55;1.85;;;13.00;99.90;;;;;;5021811;28;89673;-34
2022/09/14 04:27:37;;;;;;;8.10;2.53;;;13.00;99.90;;;;;;5022582;28;90659;-31
2022/09/14 04:30:04;;;;;;;2.70;2.03;;;13.00;99.90;;;;;;5021382;27;89318;-29
2022/09/14 04:32:30;;;;;;;4.15;2.13;;;13.00;99.90;;;;;;5021229;28;89613;-33
2022/09/14 04:34:56;;;;;;;3.50;1.80;;;13.00;99.90;;;;;;5022767;28;88654;-30
2022/09/14 04:37:22;;;;;;;4.35;1.80;;;13.00;99.90;;;;;;5021591;28;90416;-30
2022/09/14 04:39:47;;;;;;;3.40;2.05;;;13.00;99.90;;;;;;5021352;28;90320;-30
2022/09/14 04:42:13;;;;;;;3.42;1.80;;;13.00;99.90;;;;;;5021255;28;90237;-31
2022/09/14 04:44:39;;;;;;;3.65;3.05;;;13.00;99.90;;;;;;5021959;28;88959;-31
2022/09/14 04:47:04;;;;;;;11.13;8.75;;;13.00;99.90;;;;;;5022477;28;90421;-31
2022/09/14 04:49:30;;;;;;;6.10;2.85;;;13.00;99.90;;;;;;5021401;28;89473;-30
2022/09/14 04:51:55;;;;;;;4.80;3.60;;;13.00;99.90;;;;;;5021463;28;89064;-30
2022/09/14 04:54:21;;;;;;;6.82;2.17;;;13.00;99.90;;;;;;5021263;28;88021;-29
2022/09/14 04:56:47;;;;;;;2.05;1.70;;;13.00;99.90;;;;;;5022386;27;90110;-31
2022/09/14 04:59:14;;;;;;;4.15;2.10;;;13.00;99.90;;;;;;5021533;28;89990;-32
2022/09/14 05:01:42;;;;;;;5.88;2.65;;;13.10;99.90;;;;;;5021292;28;88644;-33
2022/09/14 05:04:09;;;;;;;4.30;2.25;;;13.10;99.90;;;;;;5021605;27;88328;-33
2022/09/14 05:06:37;;;;;;;5.50;2.42;;;13.10;99.90;;;;;;5021700;27;90253;-29
2022/09/14 05:09:05;;;;;;;2.78;1.65;;;13.10;99.90;;;;;;5020780;28;90709;-32
2022/09/14 05:11:34;;;;;;;6.97;2.15;;;13.20;99.90;;;;;;5020363;28;90987;-28
2022/09/14 05:14:00;;;;;;;6.25;1.85;;;13.20;99.90;;;;;;5020878;27;90326;-31
2022/09/14 05:16:30;;;;;;;6.68;1.85;;;13.20;99.90;;;;;;5021616;27;90371;-31
2022/09/14 05:19:00;;;;;;;12.98;2.13;;;13.20;99.90;;;;;;5015016;28;90124;-32
2022/09/14 05:21:25;;;;;;;1.67;1.58;;;13.30;99.90;;;;;;5021881;27;90753;-32
2022/09/14 05:24:03;;;;;;;3.97;1.95;;;13.30;99.90;;;;;;5021571;28;88969;-32
2022/09/14 05:26:30;;;;;;;2.15;1.50;;;13.30;99.90;;;;;;5020456;27;90429;-29
2022/09/14 05:28:58;;;;;;;3.30;1.35;;;13.40;99.90;;;;;;5020987;27;90294;-30
2022/09/14 05:31:25;;;;;;;9.93;2.40;;;13.40;99.90;;;;;;5021139;28;89570;-32
2022/09/14 05:33:51;;;;;;;3.13;1.25;;;13.40;99.90;;;;;;5021648;28;88425;-32
2022/09/14 05:36:17;;;;;;;2.58;1.50;;;13.40;99.90;;;;;;5020015;27;90422;-29
2022/09/14 05:38:43;;;;;;;2.75;2.03;;;13.50;99.90;;;;;;5020242;27;90017;-33
2022/09/14 05:41:11;;;;;;;3.08;1.67;;;13.50;99.90;;;;;;5020527;28;89300;-34
2022/09/14 05:43:37;;;;;;;3.22;1.73;;;13.50;99.90;;;;;;5021198;27;89835;-30
2022/09/14 05:46:09;;;;;;;2.42;1.92;;;13.50;99.90;;;;;;5021253;27;89872;-32
2022/09/14 05:48:37;;;;;;;6.03;2.17;;;13.50;99.90;;;;;;5020119;27;90149;-33
2022/09/14 05:51:09;;;;;;;11.60;2.08;;;13.50;99.90;;;;;;5020989;28;89743;-29
2022/09/14 05:53:35;;;;;;;4.10;1.95;;;13.50;99.90;;;;;;5019414;27;88632;-32
2022/09/14 05:56:08;;;;;;;1.95;1.85;;;13.50;99.90;;;;;;5020087;28;90602;-29
2022/09/14 05:58:35;;;;;;;3.92;2.00;;;13.50;99.90;;;;;;5019915;27;90737;-29
2022/09/14 06:01:21;;;;;;;2.10;1.67;;;13.60;99.90;;;;;;5020728;28;90115;-34
2022/09/14 06:03:47;;;;;;;1.50;1.40;;;13.60;99.90;;;;;;5020938;27;88724;-29
2022/09/14 06:06:15;;;;;;;9.57;3.40;;;13.60;99.90;;;;;;5019652;27;90156;-29
2022/09/14 06:08:41;;;;;;;6.13;2.10;;;13.70;99.90;;;;;;5018958;27;90405;-31
2022/09/14 06:11:18;;;;;;;10.27;1.52;;;13.70;99.90;;;;;;5020308;28;89588;-32
2022/09/14 06:13:45;;;;;;;3.67;2.38;;;13.70;99.90;;;;;;5020362;28;89909;-29
2022/09/14 06:16:16;;;;;;;4.82;1.95;;;13.70;99.90;;;;;;5019816;28;90348;-30
2022/09/14 06:18:43;;;;;;;3.00;1.58;;;13.80;99.90;;;;;;5020103;28;89562;-34
2022/09/14 06:21:11;;;;;;;3.00;1.60;;;13.80;99.90;;;;;;5019988;27;89906;-35
2022/09/14 06:23:37;;;;;;;7.13;2.47;;;13.80;99.90;;;;;;5019879;27;88104;-30
2022/09/14 06:26:04;;;;;;;3.60;1.60;;;13.90;99.90;;;;;;5019857;27;90612;-30
2022/09/14 06:28:30;;;;;;;3.55;2.17;;;13.90;99.90;;;;;;5019879;27;89659;-30
2022/09/14 06:30:57;;;;;;;8.73;2.72;;;13.90;99.90;;;;;;5019944;28;90379;-32
2022/09/14 06:33:22;;;;;;;4.72;2.72;;;13.90;99.90;;;;;;5019227;27;88322;-31
2022/09/14 06:35:55;;;;;;;5.70;1.75;;;14.00;99.90;;;;;;5019069;27;89838;-30
2022/09/14 06:38:21;;;;;;;3.88;1.85;;;14.00;99.90;;;;;;5018986;28;90825;-32
2022/09/14 06:40:55;;;;;;;3.03;1.80;;;14.10;99.90;;;;;;5019560;28;89608;-30
2022/09/14 06:43:25;;;;;;;7.97;2.00;;;14.10;99.90;;;;;;5020516;27;89029;-30
2022/09/14 06:46:05;;;;;;;5.57;2.58;;;14.20;99.90;;;;;;5019602;27;91053;-31
2022/09/14 06:48:36;;;;;;;8.52;3.08;;;14.20;99.90;;;;;;5019191;27;90589;-33
2022/09/14 06:51:26;;;;;;;10.73;2.95;;;14.30;99.90;;;;;;5020074;28;92524;-32
2022/09/14 06:53:52;;;;;;;2.55;2.20;;;14.30;99.90;;;;;;5020154;27;89541;-31
2022/09/14 06:56:19;;;;;;;3.30;1.65;;;14.40;99.90;;;;;;5019970;28;90363;-30
2022/09/14 06:58:45;;;;;;;2.00;1.58;;;14.50;99.90;;;;;;5017287;27;89190;-31
2022/09/14 07:01:13;;;;;;;3.50;1.30;;;14.50;99.90;;;;;;5019558;28;89766;-33
2022/09/14 07:03:40;;;;;;;2.05;1.42;;;14.60;99.90;;;;;;5020068;27;88457;-33
2022/09/14 07:06:09;;;;;;;2.45;1.70;;;14.70;99.90;;;;;;5017447;27;90584;-30
2022/09/14 07:08:36;;;;;;;2.38;2.05;;;14.80;99.90;;;;;;5018617;28;90444;-33
2022/09/14 07:11:03;;;;;;;3.75;2.10;;;14.80;99.90;;;;;;5013873;27;89047;-32
2022/09/14 07:13:30;;;;;;;4.18;1.70;;;14.90;99.90;;;;;;5017962;28;88897;-32
2022/09/14 07:15:55;;;;;;;7.13;2.17;;;14.90;99.90;;;;;;5019013;28;92189;-34
2022/09/14 07:18:27;;;;;;;5.72;1.73;;;14.90;99.90;;;;;;5018878;27;90267;-30
2022/09/14 07:20:54;;;;;;;5.85;1.27;;;15.00;99.90;;;;;;5017412;27;89076;-33
2022/09/14 07:23:20;;;;;;;4.13;2.72;;;15.00;99.90;;;;;;5018349;27;89459;-34
2022/09/14 07:25:46;;;;;;;4.70;2.35;;;15.10;99.90;;;;;;5019112;27;90620;-33
2022/09/14 07:28:11;;;;;;;2.08;1.88;;;15.20;99.90;;;;;;5018843;28;89739;-33
2022/09/14 07:30:37;;;;;;;4.13;1.50;;;15.20;99.90;;;;;;5018717;28;89358;-33
2022/09/14 07:33:04;;;;;;;3.35;1.83;;;15.20;99.90;;;;;;5019559;28;89488;-33
2022/09/14 07:35:31;;;;;;;5.35;2.33;;;15.30;99.90;;;;;;5018083;28;90433;-31
2022/09/14 07:37:56;;;;;;;2.45;1.58;;;15.40;99.90;;;;;;5018789;27;90854;-31
2022/09/14 07:40:22;;;;;;;6.72;3.20;;;15.50;99.90;;;;;;5018452;27;91724;-32
2022/09/14 07:42:54;;;;;;;13.18;8.32;;;15.50;99.90;;;;;;5019361;27;87955;-30
2022/09/14 07:45:20;;;;;;;17.23;15.52;;;15.70;99.90;;;;;;5018201;28;90666;-29
2022/09/14 07:47:47;;;;;;;4.70;3.95;;;15.80;99.90;;;;;;5018693;28;90036;-30
2022/09/14 07:50:13;;;;;;;3.78;1.60;;;15.90;99.90;;;;;;5018534;27;90637;-30
2022/09/14 07:52:39;;;;;;;3.42;1.65;;;15.90;99.90;;;;;;5018331;28;90144;-30
2022/09/14 07:55:05;;;;;;;3.10;1.75;;;16.00;99.90;;;;;;5019255;27;90174;-31
2022/09/14 07:57:31;;;;;;;1.80;1.30;;;16.10;99.90;;;;;;5018762;27;90197;-32
2022/09/14 07:59:57;;;;;;;5.05;2.17;;;16.20;99.90;;;;;;5018265;28;88497;-35
2022/09/14 08:02:23;;;;;;;2.67;1.95;;;16.20;99.90;;;;;;5018499;27;90012;-30
2022/09/14 08:04:51;;;;;;;4.95;2.33;;;16.30;99.90;;;;;;5017903;28;90791;-31
2022/09/14 08:07:17;;;;;;;3.28;1.90;;;16.40;99.90;;;;;;5015886;27;90184;-32
2022/09/14 08:09:44;;;;;;;8.40;1.85;;;16.40;99.90;;;;;;5005217;28;89346;-31
2022/09/14 08:12:09;;;;;;;3.20;1.40;;;16.50;99.90;;;;;;5017612;28;88511;-34
2022/09/14 08:14:36;;;;;;;3.63;2.08;;;16.50;99.90;;;;;;5016650;28;90999;-30
2022/09/14 08:17:02;;;;;;;5.43;1.40;;;16.50;99.90;;;;;;5016353;27;89468;-32
2022/09/14 08:19:27;;;;;;;4.00;1.70;;;16.60;99.90;;;;;;5017111;28;89477;-33
2022/09/14 08:21:53;;;;;;;1.85;1.48;;;16.70;99.90;;;;;;5018759;27;89376;-34
2022/09/14 08:24:20;;;;;;;5.00;1.70;;;16.70;99.90;;;;;;5017079;27;91858;-32
2022/09/14 08:26:47;;;;;;;3.40;1.85;;;16.90;99.90;;;;;;5017068;27;90681;-32
2022/09/14 08:29:14;;;;;;;6.68;1.40;;;16.90;99.90;;;;;;5017507;28;90367;-31
2022/09/14 08:31:42;;;;;;;15.23;1.92;;;17.00;99.90;;;;;;5018881;27;89850;-31
2022/09/14 08:34:07;;;;;;;1.95;1.60;;;17.00;99.90;;;;;;5021330;27;90191;-33
2022/09/14 08:36:35;;;;;;;2.60;0.80;;;17.10;99.90;;;;;;5020966;27;89771;-32
2022/09/14 08:39:02;;;;;;;;;;;17.10;99.90;;;;;;5020990;28;89617;-32
2022/09/14 08:41:32;;;;;;;2.92;0.90;;;17.10;99.90;;;;;;5021733;28;88656;-32
2022/09/14 08:44:24;;;;;;;2.88;1.27;;;17.20;99.90;;;;;;5021551;27;90227;-30
2022/09/14 08:47:11;;;;;;;3.33;1.00;;;17.40;99.90;;;;;;5021247;27;89837;-32
2022/09/14 08:50:08;;;;;;;1.92;0.80;;;17.50;99.90;;;;;;5021080;27;89528;-30
2022/09/14 08:52:36;;;;;;;3.13;1.58;;;17.70;99.90;;;;;;5020693;27;90432;-33
2022/09/14 08:55:26;;;;;;;3.42;1.35;;;17.90;99.90;;;;;;5020835;27;90563;-31
2022/09/14 08:58:01;;;;;;;3.30;0.82;;;18.20;99.90;;;;;;5021015;28;89812;-31
2022/09/14 09:00:49;;;;;;;2.92;0.90;;;18.30;99.90;;;;;;5020537;28;89740;-32
2022/09/14 09:03:37;;;;;;;4.63;0.73;;;18.30;99.90;;;;;;5019313;28;88901;-34
2022/09/14 09:06:29;;;;;;;3.40;1.23;;;18.30;99.90;;;;;;5017340;28;90266;-32
2022/09/14 09:09:16;;;;;;;3.80;1.02;;;18.30;99.90;;;;;;4978061;28;89897;-30
2022/09/14 09:11:45;;;;;;;8.80;1.17;;;18.20;99.90;;;;;;5020506;28;89664;-32
2022/09/14 09:14:34;;;;;;;3.42;0.98;;;18.20;99.90;;;;;;5020707;27;88897;-31
2022/09/14 09:17:11;;;;;;;4.65;0.85;;;18.20;99.90;;;;;;5020265;27;90479;-32
2022/09/14 09:19:46;;;;;;;10.02;0.77;;;18.30;99.90;;;;;;5019675;27;90954;-32
2022/09/14 09:22:16;;;;;;;1.08;0.95;;;18.20;99.90;;;;;;5020978;27;90715;-36
2022/09/14 09:24:46;;;;;;;2.03;0.55;;;18.20;99.90;;;;;;5020966;27;89627;-33
2022/09/14 09:27:14;;;;;;;1.20;0.90;;;18.20;99.90;;;;;;5019353;27;90575;-33
2022/09/14 09:29:39;;;;;;;2.95;0.60;;;18.20;99.90;;;;;;5020420;27;89478;-34
2022/09/14 09:32:11;;;;;;;2.45;0.80;;;18.30;99.90;;;;;;5019664;27;89799;-34
2022/09/14 09:34:37;;;;;;;4.00;1.17;;;18.40;99.90;;;;;;5020025;27;89632;-33
2022/09/14 09:37:03;;;;;;;3.95;0.95;;;18.50;99.90;;;;;;5019914;27;90464;-34
2022/09/14 09:39:30;;;;;;;1.20;0.63;;;18.40;99.90;;;;;;5019663;27;90108;-30
2022/09/14 09:42:11;;;;;;;2.78;1.30;;;18.50;99.90;;;;;;5019768;27;89721;-30
2022/09/14 09:45:00;;;;;;;4.47;1.73;;;18.60;99.90;;;;;;5019207;27;90498;-33
2022/09/14 09:47:38;;;;;;;2.65;0.60;;;18.60;99.90;;;;;;5019937;27;90334;-34
2022/09/14 09:50:12;;;;;;;3.00;0.95;;;18.60;99.90;;;;;;5019568;28;89692;-32
2022/09/14 09:52:53;;;;;;;1.17;0.60;;;18.60;99.90;;;;;;5020044;28;89513;-31
2022/09/14 09:55:25;;;;;;;3.63;1.42;;;18.60;99.90;;;;;;5019800;27;88533;-32
2022/09/14 09:57:53;;;;;;;4.10;1.88;;;18.60;99.90;;;;;;4999194;28;91300;-31
2022/09/14 10:00:23;;;;;;;5.60;1.20;;;18.70;99.90;;;;;;5013808;28;89631;-32
2022/09/14 10:02:49;;;;;;;1.60;1.20;;;18.60;99.90;;;;;;5019780;27;89915;-32
2022/09/14 10:05:22;;;;;;;3.00;1.13;;;18.60;99.90;;;;;;5018833;27;89905;-34
2022/09/14 10:07:48;;;;;;;2.63;1.27;;;18.50;99.90;;;;;;5020009;27;90137;-30
2022/09/14 10:10:15;;;;;;;1.98;1.10;;;18.50;99.90;;;;;;5018485;28;91383;-31
2022/09/14 10:12:50;;;;;;;4.20;1.25;;;18.40;99.90;;;;;;5019385;27;90656;-31
2022/09/14 10:15:29;;;;;;;3.95;1.13;;;18.50;99.90;;;;;;5019094;28;88861;-32
2022/09/14 10:18:10;;;;;;;2.40;0.95;;;18.60;99.90;;;;;;5019753;27;90195;-31
2022/09/14 10:20:43;;;;;;;2.28;0.90;;;18.70;99.90;;;;;;5018695;28;90302;-32
2022/09/14 10:23:17;;;;;;;2.75;1.10;;;18.80;99.90;;;;;;5019901;27;89525;-30
2022/09/14 10:25:51;;;;;;;4.03;1.35;;;18.90;99.90;;;;;;5017142;28;89237;-34
2022/09/14 10:28:27;;;;;;;4.20;0.98;;;19.00;99.90;;;;;;5019845;27;90816;-32
2022/09/14 10:31:16;;;;;;;2.17;0.90;;;19.10;99.90;;;;;;5019689;27;90265;-32
2022/09/14 10:33:47;;;;;;;2.00;1.23;;;19.20;99.90;;;;;;5020047;27;90357;-32
2022/09/14 10:36:15;;;;;;;3.38;1.40;;;19.20;99.90;;;;;;5018738;27;88933;-34
2022/09/14 10:38:45;;;;;;;5.00;1.45;;;19.20;99.90;;;;;;5019016;28;90281;-30
2022/09/14 10:41:39;;;;;;;7.05;1.90;;;19.10;99.90;;;;;;5019749;27;89824;-31
2022/09/14 10:44:35;;;;;;;6.63;1.35;;;18.80;99.90;;;;;;5013201;28;90068;-30
2022/09/14 10:47:15;;;;;;;2.72;1.35;;;18.60;99.90;;;;;;5019273;28;90365;-32
2022/09/14 10:50:03;;;;;;;5.50;1.10;;;18.60;99.90;;;;;;5018583;28;90061;-30
2022/09/14 10:52:49;;;;;;;9.00;1.33;;;18.50;99.90;;;;;;5018751;28;90034;-32
2022/09/14 10:55:47;;;;;;;3.05;1.35;;;18.50;99.90;;;;;;5019105;27;89554;-33
2022/09/14 10:58:26;;;;;;;;;;;18.50;99.90;;;;;;4966745;28;88890;-34
2022/09/14 11:01:26;;;;;;;10.40;2.47;;;18.50;99.90;;;;;;5019664;28;90247;-34
2022/09/14 11:04:27;;;;;;;4.28;1.88;;;18.50;99.90;;;;;;5015785;28;90618;-32
2022/09/14 11:06:55;;;;;;;7.10;1.65;;;18.40;99.90;;;;;;5001904;27;91281;-31
2022/09/14 11:09:36;;;;;;;3.15;1.15;;;18.40;99.90;;;;;;5018503;27;89286;-33
2022/09/14 11:12:33;;;;;;;2.65;1.10;;;18.40;99.90;;;;;;5018901;27;90498;-32
2022/09/14 11:15:48;;;;;;;5.05;2.13;;;18.40;99.90;;;;;;5019469;27;91392;-31
2022/09/14 11:18:32;;;;;;;5.20;1.27;;;18.40;99.90;;;;;;5005588;28;89989;-32
2022/09/14 11:21:24;;;;;;;2.05;1.38;;;18.40;99.90;;;;;;5019224;28;89760;-31
2022/09/14 11:23:53;;;;;;;1.88;0.90;;;18.50;99.90;;;;;;5018974;27;90133;-32
2022/09/14 11:26:24;;;;;;;4.72;1.30;;;18.60;99.90;;;;;;5017711;28;89795;-31
2022/09/14 11:29:17;;;;;;;5.85;1.13;;;18.70;99.90;;;;;;5018260;28;90923;-32
2022/09/14 11:31:51;;;;;;;2.13;1.00;;;18.70;99.90;;;;;;5018451;28;88521;-32
2022/09/14 11:34:20;;;;;;;5.60;1.30;;;18.80;99.90;;;;;;5018022;28;90663;-32
2022/09/14 11:36:58;;;;;;;1.95;1.00;;;18.90;99.90;;;;;;5015830;28;89844;-34
2022/09/14 11:39:34;;;;;;;4.00;1.55;;;19.00;99.90;;;;;;5017621;27;89489;-30
2022/09/14 11:42:11;;;;;;;2.10;0.65;;;19.10;99.90;;;;;;5017327;28;87879;-31
2022/09/14 11:44:41;;;;;;;2.03;1.20;;;19.20;99.90;;;;;;5006079;28;90483;-34
2022/09/14 11:47:13;;;;;;;2.15;0.98;;;19.20;99.90;;;;;;5018043;27;90585;-34
2022/09/14 11:49:58;;;;;;;2.97;1.20;;;19.40;99.90;;;;;;5018831;28;89014;-32
2022/09/14 11:52:29;;;;;;;1.80;1.00;;;19.60;99.90;;;;;;5019038;27;88062;-31
2022/09/14 11:54:56;;;;;;;7.38;2.03;;;19.80;99.90;;;;;;5017710;27;90432;-32
2022/09/14 11:57:30;;;;;;;4.32;1.67;;;19.90;99.90;;;;;;5016041;27;90701;-32
2022/09/14 12:00:04;;;;;;;5.50;1.70;;;20.00;99.90;;;;;;5018257;27;90798;-35
2022/09/14 12:02:35;;;;;;;2.03;1.40;;;20.00;99.90;;;;;;5017639;27;89470;-34
2022/09/14 12:05:04;;;;;;;4.45;1.10;;;20.00;99.90;;;;;;5018728;28;89895;-32
2022/09/14 12:07:42;;;;;;;4.20;1.58;;;19.90;99.90;;;;;;5019691;27;90003;-31
2022/09/14 12:10:16;;;;;;;2.47;1.10;;;19.80;99.90;;;;;;5021644;27;89574;-32
2022/09/14 12:12:44;;;;;;;1.67;1.30;;;19.60;99.90;;;;;;5021555;28;89918;-31
2022/09/14 12:15:28;;;;;;;3.30;1.27;;;19.60;99.90;;;;;;5022529;27;90254;-31
2022/09/14 12:18:06;;;;;;;6.80;1.48;;;19.50;99.90;;;;;;5021482;27;89600;-32
2022/09/14 12:20:47;;;;;;;2.80;1.15;;;19.40;99.90;;;;;;5021117;28;89000;-32
2022/09/14 12:23:25;;;;;;;2.75;0.93;;;19.30;99.90;;;;;;5020317;27;88851;-32
2022/09/14 12:26:20;;;;;;;2.42;1.50;;;19.30;99.90;;;;;;5021149;28;90632;-34
2022/09/14 12:28:49;;;;;;;4.43;1.40;;;19.30;99.90;;;;;;4999612;28;89572;-32
2022/09/14 12:31:38;;;;;;;2.45;1.20;;;19.30;99.90;;;;;;5021381;28;90690;-31
2022/09/14 12:34:07;;;;;;;3.10;1.25;;;19.20;99.90;;;;;;5021623;27;89231;-33
2022/09/14 12:36:35;;;;;;;2.67;1.27;;;19.20;99.90;;;;;;5021071;28;90912;-32
2022/09/14 12:39:19;;;;;;;6.15;1.27;;;19.20;99.90;;;;;;5056695;22;90227;-32
2022/09/14 12:41:47;;;;;;;4.05;1.52;;;19.30;99.90;;;;;;5021369;27;90141;-33
2022/09/14 12:44:39;;;;;;;3.13;1.50;;;19.60;99.90;;;;;;5020983;28;89360;-34
2022/09/14 12:47:23;;;;;;;4.90;1.73;;;19.60;99.90;;;;;;5007497;28;89864;-32
2022/09/14 12:49:49;;;;;;;2.63;1.75;;;19.70;99.90;;;;;;5020730;28;90979;-31
2022/09/14 12:52:43;;;;;;;4.53;1.88;;;19.60;99.90;;;;;;5021478;28;89711;-31
2022/09/14 12:55:32;;;;;;;3.33;0.98;;;19.60;99.90;;;;;;5021271;27;88787;-31
2022/09/14 12:58:25;;;;;;;1.55;1.35;;;19.60;99.90;;;;;;5012594;28;90995;-33
2022/09/14 13:01:15;;;;;;;1.55;1.00;;;19.70;99.90;;;;;;5017899;28;89631;-35
2022/09/14 13:03:53;;;;;;;5.18;1.40;;;19.70;99.90;;;;;;5021117;28;89004;-32
2022/09/14 13:06:20;;;;;;;2.15;1.52;;;19.90;99.90;;;;;;5020955;28;90020;-32
2022/09/14 13:08:50;;;;;;;1.63;1.13;;;20.00;99.90;;;;;;5028590;28;90227;-32
2022/09/14 13:11:35;;;;;;;2.30;1.17;;;20.00;99.90;;;;;;5024772;27;89906;-35
2022/09/14 13:14:02;;;;;;;0.82;0.73;;;20.00;99.90;;;;;;5021220;27;90278;-32
2022/09/14 13:16:35;;;;;;;2.17;1.38;;;20.00;99.90;;;;;;5020266;27;89746;-33